Goddard, Kansas
Current Conditions -  °F | °C
As of 8:53 PM on Monday 22 Dec 2014 (Local Time) from KICT Reporting Station
Scattered Clouds Scattered Clouds  
Wind Chill: 34°   Ceiling: Unl
Heat Index: 40°   Visibility: 10mi
Dew Point: 33°   Wind: 9mph
Humidity: 77%   Direction: 260°W
Pressure: 29.62"   Gusts: NA
Location:  37.66°N, 97.58°W
Report Text: KICT 230253Z 26008KT 10SM SCT100 04/01 A2962 RMK AO2 SLP032 T00440006 51016
Loading
Personal Weather Stations






























Interactive Weather Map New forecast layout! Learn more

10-Day Weather Forecast

Advertisements
Track Severe Weather on mobile